Time;durP1;ratioP1;P1;durP2;ratioP2;P2;SDS_P1;SDS_P2;PMS_P1;PMS_P2;Temp;Humidity;BMP_temperature;BMP_pressure;BME280_temperature;BME280_humidity;BME280_pressure;Samples;Min_cycle;Max_cycle;Signal;HPM_P1;HPM_P2
2023/06/02 00:02:17;;;;;;;3.97;3.57;;;19.60;61.90;;;;;;4910338;29;20622;-65
2023/06/02 00:04:44;;;;;;;5.23;4.00;;;19.60;61.60;;;;;;4908495;29;20266;-67
2023/06/02 00:07:11;;;;;;;4.28;3.78;;;19.60;61.50;;;;;;4912423;29;20676;-66
2023/06/02 00:09:41;;;;;;;4.57;3.97;;;19.50;61.40;;;;;;4912042;29;20245;-65
2023/06/02 00:12:08;;;;;;;4.43;3.50;;;19.50;61.50;;;;;;4915454;29;20198;-66
2023/06/02 00:14:37;;;;;;;5.10;4.32;;;19.40;61.40;;;;;;4913390;29;20186;-66
2023/06/02 00:17:03;;;;;;;4.88;3.95;;;19.30;61.50;;;;;;4914257;29;20611;-66
2023/06/02 00:19:32;;;;;;;4.60;4.20;;;19.20;62.50;;;;;;4911387;29;20244;-66
2023/06/02 00:22:02;;;;;;;4.55;3.97;;;19.10;62.20;;;;;;4911742;29;20449;-66
2023/06/02 00:24:28;;;;;;;4.82;3.90;;;19.10;62.40;;;;;;4912861;29;20186;-65
2023/06/02 00:26:53;;;;;;;5.83;3.93;;;19.10;61.30;;;;;;4914995;29;20828;-66
2023/06/02 00:29:19;;;;;;;5.80;4.10;;;19.10;61.10;;;;;;4911375;29;20308;-66
2023/06/02 00:31:44;;;;;;;4.30;3.53;;;19.10;60.60;;;;;;4911329;29;20705;-66
2023/06/02 00:34:10;;;;;;;5.13;4.10;;;19.10;60.50;;;;;;4921675;29;20195;-66
2023/06/02 00:36:36;;;;;;;4.10;3.80;;;19.00;61.50;;;;;;4916132;29;20190;-67
2023/06/02 00:39:03;;;;;;;7.53;3.90;;;19.00;62.80;;;;;;4910541;29;20539;-66
2023/06/02 00:41:29;;;;;;;5.70;4.10;;;18.90;62.10;;;;;;4912757;29;20466;-66
2023/06/02 00:43:55;;;;;;;4.25;3.78;;;18.80;63.20;;;;;;4914861;29;20194;-66
2023/06/02 00:46:21;;;;;;;4.53;4.13;;;18.80;63.50;;;;;;4905190;29;20196;-66
2023/06/02 00:48:48;;;;;;;4.90;4.30;;;18.80;64.00;;;;;;4913825;29;20980;-66
2023/06/02 00:51:15;;;;;;;4.30;3.78;;;18.70;64.20;;;;;;4914833;29;20212;-66
2023/06/02 00:53:41;;;;;;;4.75;3.97;;;19.00;65.20;;;;;;4910328;29;20198;-66
2023/06/02 00:56:07;;;;;;;4.03;3.72;;;18.60;64.70;;;;;;4912342;29;20187;-66
2023/06/02 00:58:37;;;;;;;4.10;3.70;;;18.80;64.80;;;;;;4912565;29;20224;-66
2023/06/02 01:01:04;;;;;;;5.15;4.30;;;18.50;63.40;;;;;;4912764;29;21071;-66
2023/06/02 01:03:31;;;;;;;4.53;4.00;;;18.50;64.60;;;;;;4912459;29;20213;-66
2023/06/02 01:06:00;;;;;;;4.45;4.05;;;18.40;64.60;;;;;;4911965;29;20179;-66
2023/06/02 01:08:27;;;;;;;4.57;4.03;;;18.30;64.80;;;;;;4914044;29;20183;-66
2023/06/02 01:10:53;;;;;;;4.85;3.75;;;18.20;65.70;;;;;;4911863;29;20203;-66
2023/06/02 01:13:19;;;;;;;5.25;4.03;;;18.20;65.40;;;;;;4914195;29;20190;-66
2023/06/02 01:15:48;;;;;;;4.57;4.18;;;18.20;64.00;;;;;;4912159;29;20192;-66
2023/06/02 01:18:16;;;;;;;5.00;3.80;;;18.20;63.40;;;;;;4911452;29;20194;-65
2023/06/02 01:20:44;;;;;;;4.80;4.30;;;18.30;62.90;;;;;;4904648;29;20296;-65
2023/06/02 01:23:15;;;;;;;5.18;4.00;;;18.10;63.20;;;;;;4910274;29;20197;-66
2023/06/02 01:25:41;;;;;;;4.55;4.03;;;18.30;63.10;;;;;;4908503;29;20565;-66
2023/06/02 01:28:07;;;;;;;6.37;3.97;;;18.20;63.50;;;;;;4915898;29;20189;-66
2023/06/02 01:30:33;;;;;;;4.40;4.00;;;18.10;63.80;;;;;;4923884;29;20459;-66
2023/06/02 01:33:10;;;;;;;4.20;3.80;;;17.90;64.20;;;;;;4911173;29;20532;-66
2023/06/02 01:35:43;;;;;;;5.18;4.68;;;17.90;64.70;;;;;;4911703;29;20198;-66
2023/06/02 01:38:10;;;;;;;4.55;4.15;;;17.90;65.20;;;;;;4910191;29;20659;-66
2023/06/02 01:40:37;;;;;;;6.40;3.90;;;17.90;67.90;;;;;;4910624;29;20399;-66
2023/06/02 01:43:05;;;;;;;6.38;4.40;;;17.80;67.90;;;;;;4914730;29;20257;-66
2023/06/02 01:45:32;;;;;;;4.97;4.47;;;17.70;67.50;;;;;;4915276;29;20186;-66
2023/06/02 01:48:05;;;;;;;6.30;5.00;;;17.90;67.50;;;;;;4912823;29;20197;-65
2023/06/02 01:50:32;;;;;;;6.13;4.55;;;17.80;67.10;;;;;;4915790;29;20301;-65
2023/06/02 01:52:57;;;;;;;4.63;4.13;;;17.50;67.20;;;;;;4914184;29;20556;-67
2023/06/02 01:55:23;;;;;;;6.67;5.70;;;17.70;68.00;;;;;;4929478;29;20197;-67
2023/06/02 01:57:50;;;;;;;5.82;4.47;;;17.50;69.40;;;;;;4914140;29;20213;-65
2023/06/02 02:00:16;;;;;;;5.18;4.32;;;17.60;70.10;;;;;;4914707;29;20234;-65
2023/06/02 02:02:42;;;;;;;5.00;4.35;;;17.50;69.80;;;;;;4913816;29;20213;-65
2023/06/02 02:05:07;;;;;;;6.20;4.50;;;17.50;70.20;;;;;;4914168;29;20587;-65
2023/06/02 02:07:34;;;;;;;5.20;4.70;;;17.60;69.70;;;;;;4914938;29;20194;-65
2023/06/02 02:10:00;;;;;;;4.95;4.50;;;17.50;70.00;;;;;;4916224;29;20202;-65
2023/06/02 02:12:26;;;;;;;4.78;4.38;;;17.70;70.90;;;;;;4914684;29;20550;-66
2023/06/02 02:14:56;;;;;;;6.57;4.30;;;17.40;70.40;;;;;;4915186;29;20178;-65
2023/06/02 02:17:25;;;;;;;4.65;4.25;;;17.50;70.30;;;;;;4914446;29;20655;-67
2023/06/02 02:19:55;;;;;;;5.70;4.57;;;17.60;70.60;;;;;;4913848;29;20232;-64
2023/06/02 02:22:23;;;;;;;4.82;4.32;;;17.30;70.50;;;;;;4913020;29;20190;-67
2023/06/02 02:24:48;;;;;;;10.63;4.50;;;17.20;71.00;;;;;;4915665;29;20182;-67
2023/06/02 02:27:14;;;;;;;5.17;4.50;;;17.00;71.30;;;;;;4915672;29;20182;-67
2023/06/02 02:29:40;;;;;;;5.47;4.40;;;17.00;71.60;;;;;;4911725;29;20214;-67
2023/06/02 02:32:06;;;;;;;5.73;4.90;;;17.00;71.60;;;;;;4908640;29;20623;-67
2023/06/02 02:34:32;;;;;;;5.60;4.85;;;17.20;71.90;;;;;;4922746;29;20200;-67
2023/06/02 02:37:03;;;;;;;5.70;4.80;;;17.00;72.30;;;;;;4914243;29;20178;-66
2023/06/02 02:39:29;;;;;;;4.80;4.40;;;17.00;73.00;;;;;;4964457;23;20539;-67
2023/06/02 02:41:55;;;;;;;5.90;4.80;;;16.80;73.40;;;;;;4911999;29;20195;-66
2023/06/02 02:44:21;;;;;;;5.70;4.20;;;17.20;73.50;;;;;;4914683;29;20194;-66
2023/06/02 02:46:46;;;;;;;4.87;4.37;;;17.10;73.30;;;;;;4914257;29;20210;-65
2023/06/02 02:49:12;;;;;;;5.13;4.63;;;17.20;73.80;;;;;;4913643;29;20813;-65
2023/06/02 02:51:38;;;;;;;5.23;4.73;;;17.00;74.00;;;;;;4913068;29;20194;-66
2023/06/02 02:54:04;;;;;;;6.97;5.10;;;17.00;73.90;;;;;;4911623;29;20219;-65
2023/06/02 02:56:30;;;;;;;5.33;4.80;;;16.80;74.30;;;;;;4914057;29;20547;-65
2023/06/02 02:58:59;;;;;;;5.55;4.90;;;16.90;75.00;;;;;;4910086;29;20478;-65
2023/06/02 03:01:26;;;;;;;6.55;4.65;;;16.90;75.20;;;;;;4907517;29;20202;-65
2023/06/02 03:03:53;;;;;;;4.25;3.42;;;16.90;75.50;;;;;;4910054;29;20728;-65
2023/06/02 03:06:19;;;;;;;5.80;5.18;;;16.80;75.80;;;;;;4918698;29;20194;-65
2023/06/02 03:08:48;;;;;;;5.18;4.65;;;16.80;76.00;;;;;;4911992;29;20194;-65
2023/06/02 03:11:14;;;;;;;4.70;4.10;;;16.70;77.50;;;;;;4912191;29;20281;-65
2023/06/02 03:13:39;;;;;;;5.40;4.87;;;16.70;78.40;;;;;;4914203;29;20203;-65
2023/06/02 03:16:05;;;;;;;4.63;4.17;;;16.60;78.80;;;;;;4915404;29;20450;-65
2023/06/02 03:18:31;;;;;;;5.15;4.65;;;16.50;79.30;;;;;;4913099;29;20225;-65
2023/06/02 03:20:58;;;;;;;5.80;4.93;;;16.30;79.40;;;;;;4909867;29;20233;-65
2023/06/02 03:23:25;;;;;;;4.95;4.55;;;16.40;79.70;;;;;;4917806;29;20277;-65
2023/06/02 03:25:51;;;;;;;10.32;5.00;;;16.40;80.10;;;;;;4913666;29;20202;-64
2023/06/02 03:28:18;;;;;;;6.10;5.50;;;16.50;81.00;;;;;;4919041;29;20200;-65
2023/06/02 03:30:44;;;;;;;9.13;5.20;;;16.50;81.60;;;;;;4910767;29;20694;-65
2023/06/02 03:33:09;;;;;;;5.77;5.10;;;16.40;81.80;;;;;;4914516;29;20190;-64
2023/06/02 03:35:35;;;;;;;5.97;5.37;;;16.30;82.50;;;;;;4911726;29;20256;-64
2023/06/02 03:38:01;;;;;;;6.73;5.30;;;16.50;83.50;;;;;;4907176;29;20446;-64
2023/06/02 03:40:26;;;;;;;6.20;5.10;;;16.20;83.70;;;;;;4915018;29;20285;-64
2023/06/02 03:42:52;;;;;;;7.13;4.97;;;16.10;84.20;;;;;;4919198;29;20204;-67
2023/06/02 03:45:18;;;;;;;5.90;5.00;;;16.30;85.50;;;;;;4912870;29;20197;-67
2023/06/02 03:47:43;;;;;;;6.43;5.20;;;15.80;85.60;;;;;;4894011;29;20186;-66
2023/06/02 03:50:09;;;;;;;6.33;5.70;;;16.10;87.40;;;;;;4912028;29;20218;-66
2023/06/02 03:52:35;;;;;;;7.40;5.28;;;15.90;87.80;;;;;;4908538;29;20674;-66
2023/06/02 03:55:00;;;;;;;7.33;5.50;;;16.30;88.70;;;;;;4900366;29;20213;-64
2023/06/02 03:57:26;;;;;;;6.20;5.10;;;16.10;88.50;;;;;;4898411;29;20540;-64
2023/06/02 03:59:52;;;;;;;6.33;5.07;;;16.20;89.10;;;;;;4912924;29;20702;-64
2023/06/02 04:02:17;;;;;;;7.00;5.33;;;15.80;89.60;;;;;;4914769;29;20190;-65
2023/06/02 04:04:43;;;;;;;6.80;5.70;;;15.90;90.10;;;;;;4918616;29;20572;-65
2023/06/02 04:07:12;;;;;;;6.60;5.20;;;15.90;90.40;;;;;;4916012;29;20184;-65
2023/06/02 04:09:37;;;;;;;7.07;5.47;;;15.40;90.60;;;;;;4906886;29;20214;-65
2023/06/02 04:12:03;;;;;;;8.43;5.50;;;15.70;91.10;;;;;;4895407;29;20620;-65
2023/06/02 04:14:30;;;;;;;7.82;4.95;;;15.80;91.20;;;;;;4905151;29;20680;-65
2023/06/02 04:16:56;;;;;;;11.70;6.13;;;13.40;90.20;;;;;;4909509;29;20225;-65
2023/06/02 04:19:22;;;;;;;7.35;5.63;;;15.50;91.90;;;;;;4910321;29;20701;-65
2023/06/02 04:21:47;;;;;;;7.87;5.43;;;15.50;92.20;;;;;;4910426;29;20213;-65
2023/06/02 04:24:13;;;;;;;6.17;5.57;;;15.60;92.50;;;;;;4892062;29;20192;-65
2023/06/02 04:26:39;;;;;;;5.67;5.17;;;15.70;92.40;;;;;;4895464;29;20187;-65
2023/06/02 04:29:06;;;;;;;5.80;5.03;;;15.50;92.20;;;;;;4908717;29;20220;-65
2023/06/02 04:31:43;;;;;;;7.13;5.90;;;15.80;92.40;;;;;;4910815;29;20205;-65
2023/06/02 04:34:12;;;;;;;6.90;5.80;;;15.90;92.50;;;;;;4908727;29;20222;-65
2023/06/02 04:36:38;;;;;;;7.45;5.82;;;16.00;92.50;;;;;;4914667;29;20197;-66
2023/06/02 04:39:07;;;;;;;7.03;6.00;;;15.60;92.50;;;;;;4903333;29;20231;-66
2023/06/02 04:41:33;;;;;;;8.23;5.85;;;15.70;92.70;;;;;;4906087;29;20199;-66
2023/06/02 04:44:00;;;;;;;7.63;6.57;;;15.60;92.90;;;;;;4906602;29;20565;-66
2023/06/02 04:46:26;;;;;;;7.13;5.78;;;15.70;93.00;;;;;;4902609;29;20438;-67
2023/06/02 04:48:52;;;;;;;6.97;5.72;;;16.00;93.30;;;;;;4903214;29;20201;-66
2023/06/02 04:51:19;;;;;;;6.80;6.10;;;15.40;93.20;;;;;;4911211;29;20213;-66
2023/06/02 04:53:45;;;;;;;8.30;6.68;;;15.60;93.70;;;;;;4909404;29;20655;-66
2023/06/02 04:56:11;;;;;;;6.70;6.10;;;15.50;93.70;;;;;;4912500;29;20197;-66
2023/06/02 04:58:37;;;;;;;9.33;5.80;;;15.90;93.90;;;;;;4908481;29;20204;-65
2023/06/02 05:01:03;;;;;;;8.35;6.60;;;15.60;93.90;;;;;;4892853;29;20214;-66
2023/06/02 05:03:29;;;;;;;7.90;6.63;;;15.90;94.50;;;;;;4913714;29;20229;-65
2023/06/02 05:05:55;;;;;;;8.00;6.23;;;15.80;94.40;;;;;;4915381;29;20190;-65
2023/06/02 05:08:21;;;;;;;10.10;7.10;;;15.80;94.50;;;;;;4907095;29;20473;-65
2023/06/02 05:10:47;;;;;;;9.23;6.57;;;15.30;94.60;;;;;;4906947;29;20214;-65
2023/06/02 05:13:14;;;;;;;7.40;6.33;;;15.30;95.50;;;;;;4907046;29;20206;-67
2023/06/02 05:15:39;;;;;;;9.68;5.97;;;15.60;95.60;;;;;;4912802;29;20555;-66
2023/06/02 05:18:05;;;;;;;7.63;6.13;;;15.60;95.80;;;;;;4913284;29;20192;-65
2023/06/02 05:20:30;;;;;;;7.90;6.67;;;15.90;95.80;;;;;;4916439;29;20245;-65
2023/06/02 05:22:56;;;;;;;9.07;6.23;;;16.10;95.80;;;;;;4907723;29;20273;-67
2023/06/02 05:25:22;;;;;;;10.10;7.00;;;15.60;95.40;;;;;;4909492;29;20247;-66
2023/06/02 05:27:47;;;;;;;7.20;6.50;;;15.50;95.80;;;;;;4912778;29;20194;-66
2023/06/02 05:30:14;;;;;;;7.73;6.73;;;15.80;96.10;;;;;;4911522;29;20266;-67
2023/06/02 05:32:40;;;;;;;9.77;7.25;;;15.80;96.00;;;;;;4907626;29;20230;-66
2023/06/02 05:35:05;;;;;;;8.53;6.60;;;15.90;96.20;;;;;;4911545;29;20225;-66
2023/06/02 05:37:31;;;;;;;7.97;6.07;;;15.90;96.00;;;;;;4910083;29;20208;-67
2023/06/02 05:39:57;;;;;;;8.07;7.00;;;16.20;96.10;;;;;;4904997;29;20993;-65
2023/06/02 05:42:22;;;;;;;13.23;6.97;;;16.10;96.10;;;;;;4897687;29;20186;-66
2023/06/02 05:44:48;;;;;;;7.57;6.80;;;16.30;95.90;;;;;;4913349;29;20190;-66
2023/06/02 05:47:14;;;;;;;7.40;6.13;;;16.20;95.80;;;;;;4911862;29;20189;-67
2023/06/02 05:49:39;;;;;;;10.33;7.00;;;15.90;95.70;;;;;;4906898;29;20234;-65
2023/06/02 05:52:05;;;;;;;12.03;9.13;;;16.00;96.20;;;;;;4914629;29;20667;-65
2023/06/02 05:54:31;;;;;;;4.90;4.40;;;16.20;96.00;;;;;;4907322;29;20189;-70
2023/06/02 05:56:57;;;;;;;4.97;4.47;;;16.50;97.10;;;;;;4914438;29;20470;-71
2023/06/02 05:59:22;;;;;;;5.40;4.67;;;16.90;97.00;;;;;;4892274;29;20265;-74
2023/06/02 06:01:48;;;;;;;6.70;4.27;;;17.00;96.30;;;;;;4911792;29;20186;-74
2023/06/02 06:04:13;;;;;;;7.63;5.27;;;17.70;96.70;;;;;;4906363;29;20723;-72
2023/06/02 06:06:39;;;;;;;10.47;4.40;;;18.00;94.70;;;;;;4909517;29;20273;-73
2023/06/02 06:09:05;;;;;;;8.30;5.30;;;18.20;94.20;;;;;;4910040;29;20210;-72
2023/06/02 06:11:31;;;;;;;6.90;5.50;;;18.50;93.00;;;;;;4909330;29;20289;-70
2023/06/02 06:13:57;;;;;;;6.55;5.85;;;18.60;92.70;;;;;;4907894;29;20692;-71
2023/06/02 06:16:22;;;;;;;17.43;6.23;;;18.90;92.60;;;;;;4910176;29;20191;-68
2023/06/02 06:18:48;;;;;;;9.90;6.87;;;18.90;91.70;;;;;;4912737;29;20306;-68
2023/06/02 06:21:14;;;;;;;11.50;6.90;;;18.90;90.20;;;;;;4913734;29;20269;-66
2023/06/02 06:23:40;;;;;;;9.50;6.97;;;18.60;90.50;;;;;;4911677;29;20238;-72
2023/06/02 06:26:05;;;;;;;7.23;6.53;;;18.70;90.70;;;;;;4894553;29;20454;-71
2023/06/02 06:28:31;;;;;;;6.97;6.37;;;18.20;91.10;;;;;;4915437;29;20618;-72
2023/06/02 06:30:56;;;;;;;8.73;7.30;;;18.00;91.60;;;;;;4897811;29;20201;-73
2023/06/02 06:33:22;;;;;;;7.37;6.60;;;18.00;92.00;;;;;;4911411;29;20757;-71
2023/06/02 06:35:48;;;;;;;8.00;6.63;;;17.90;92.30;;;;;;4913329;29;20218;-71
2023/06/02 06:38:13;;;;;;;7.57;6.80;;;17.80;92.10;;;;;;4909538;29;20621;-72
2023/06/02 06:40:39;;;;;;;7.23;6.30;;;17.40;93.10;;;;;;4888050;29;20221;-69
2023/06/02 06:43:04;;;;;;;13.47;7.63;;;17.80;93.60;;;;;;4893716;29;20554;-69
2023/06/02 06:45:30;;;;;;;10.13;7.80;;;17.40;93.50;;;;;;4913133;29;20242;-68
2023/06/02 06:47:56;;;;;;;8.00;6.87;;;17.50;93.70;;;;;;4897010;29;20633;-68
2023/06/02 06:50:21;;;;;;;9.30;7.17;;;17.40;93.60;;;;;;4915143;29;20218;-67
2023/06/02 06:52:48;;;;;;;10.90;7.43;;;17.70;93.30;;;;;;4910483;29;20679;-66
2023/06/02 06:55:14;;;;;;;11.15;8.38;;;17.70;93.00;;;;;;4916831;29;20281;-65
2023/06/02 06:57:40;;;;;;;8.40;7.43;;;17.70;93.20;;;;;;4913790;29;20536;-68
2023/06/02 07:00:06;;;;;;;7.80;6.80;;;18.40;92.90;;;;;;4913328;29;20218;-70
2023/06/02 07:02:32;;;;;;;9.10;6.53;;;18.30;92.20;;;;;;4912673;29;20183;-69
2023/06/02 07:04:58;;;;;;;8.88;6.00;;;19.10;91.10;;;;;;4895735;29;20186;-67
2023/06/02 07:07:24;;;;;;;8.37;7.20;;;20.80;86.90;;;;;;4911066;29;20250;-69
2023/06/02 07:09:49;;;;;;;6.67;6.00;;;22.80;80.10;;;;;;4915980;29;20223;-73
2023/06/02 07:12:15;;;;;;;7.93;6.20;;;24.80;73.20;;;;;;4913861;29;20248;-72
2023/06/02 07:14:40;;;;;;;8.53;7.00;;;26.20;66.30;;;;;;4909470;29;20190;-70
2023/06/02 07:17:07;;;;;;;7.90;7.10;;;28.10;59.20;;;;;;4912323;29;20196;-70
2023/06/02 07:19:33;;;;;;;8.47;7.60;;;28.30;57.00;;;;;;4913963;29;20228;-69
2023/06/02 07:21:58;;;;;;;6.97;6.27;;;29.30;54.30;;;;;;4909003;29;20904;-69
2023/06/02 07:24:24;;;;;;;7.63;6.90;;;30.30;51.60;;;;;;4910447;29;20231;-68
2023/06/02 07:26:49;;;;;;;6.60;6.00;;;29.90;50.30;;;;;;4911938;29;20213;-72
2023/06/02 07:29:15;;;;;;;8.60;7.80;;;30.00;49.50;;;;;;4911623;29;20219;-73
2023/06/02 07:31:43;;;;;;;8.17;7.27;;;29.10;50.70;;;;;;4912984;29;20666;-75
2023/06/02 07:34:08;;;;;;;7.20;6.47;;;29.40;50.60;;;;;;4913013;29;20197;-69
2023/06/02 07:36:34;;;;;;;8.03;6.80;;;31.20;49.10;;;;;;4913171;29;20811;-69
2023/06/02 07:39:00;;;;;;;8.33;7.07;;;31.20;47.00;;;;;;4912231;29;20206;-70
2023/06/02 07:41:27;;;;;;;7.63;7.03;;;30.60;46.60;;;;;;4912624;29;20206;-68
2023/06/02 07:43:53;;;;;;;7.90;6.90;;;30.80;47.30;;;;;;4914822;29;20266;-70
2023/06/02 07:46:19;;;;;;;6.30;5.70;;;32.20;45.30;;;;;;4911935;29;20453;-71
2023/06/02 07:48:45;;;;;;;6.17;5.57;;;31.40;46.10;;;;;;4894036;29;20537;-72
2023/06/02 07:51:10;;;;;;;7.10;6.40;;;33.30;44.50;;;;;;4909406;29;20731;-72
2023/06/02 07:53:36;;;;;;;6.40;5.90;;;32.90;42.30;;;;;;4907941;29;20190;-71
2023/06/02 07:56:02;;;;;;;7.03;6.40;;;32.60;43.30;;;;;;4909974;29;20288;-69
2023/06/02 07:58:27;;;;;;;6.83;6.33;;;32.20;43.00;;;;;;4910023;29;20202;-70
2023/06/02 08:00:53;;;;;;;6.30;5.80;;;32.90;42.60;;;;;;4908088;29;20205;-73
2023/06/02 08:03:19;;;;;;;7.47;6.77;;;32.10;43.50;;;;;;4909365;29;20523;-69
2023/06/02 08:05:45;;;;;;;7.70;7.00;;;32.50;43.00;;;;;;4895340;29;20198;-70
2023/06/02 08:08:11;;;;;;;6.47;5.83;;;32.70;42.20;;;;;;4907751;29;20178;-66
2023/06/02 08:10:37;;;;;;;7.23;6.63;;;32.40;42.30;;;;;;4912897;29;20485;-65
2023/06/02 08:13:02;;;;;;;8.10;5.80;;;32.10;43.70;;;;;;4909251;29;20201;-65
2023/06/02 08:15:28;;;;;;;7.20;6.60;;;32.90;42.50;;;;;;4903916;29;20249;-66
2023/06/02 08:17:53;;;;;;;7.70;7.10;;;33.30;41.10;;;;;;4911871;29;20197;-69
2023/06/02 08:20:19;;;;;;;5.87;5.37;;;32.20;41.40;;;;;;4910043;29;20213;-64
2023/06/02 08:22:46;;;;;;;6.90;6.20;;;33.10;41.90;;;;;;4909626;29;20535;-66
2023/06/02 08:25:15;;;;;;;6.87;6.27;;;32.90;41.60;;;;;;4910758;29;20187;-66
2023/06/02 08:27:44;;;;;;;6.60;6.13;;;33.30;41.60;;;;;;4913542;29;20989;-65
2023/06/02 08:30:11;;;;;;;8.20;6.90;;;32.50;41.50;;;;;;4907468;29;20901;-67
2023/06/02 08:32:37;;;;;;;7.20;6.60;;;33.50;41.20;;;;;;4905523;29;20444;-66
2023/06/02 08:35:02;;;;;;;7.20;6.50;;;34.30;40.50;;;;;;4911534;29;20533;-67
2023/06/02 08:37:29;;;;;;;7.70;7.00;;;33.90;40.10;;;;;;4889047;29;20216;-67
2023/06/02 08:39:55;;;;;;;7.90;7.30;;;33.50;40.20;;;;;;4903488;29;20486;-67
2023/06/02 08:42:22;;;;;;;7.70;6.37;;;33.60;40.30;;;;;;4910789;29;20521;-66
2023/06/02 08:44:48;;;;;;;7.20;6.53;;;32.20;40.90;;;;;;4910661;29;20808;-68
2023/06/02 08:47:14;;;;;;;6.73;6.23;;;33.10;41.40;;;;;;4910494;29;20450;-70
2023/06/02 08:49:45;;;;;;;7.33;6.63;;;33.70;40.80;;;;;;4910454;29;20474;-67
2023/06/02 08:52:16;;;;;;;8.53;7.30;;;33.20;41.30;;;;;;4894964;29;20453;-67
2023/06/02 08:54:42;;;;;;;6.70;6.10;;;33.20;41.10;;;;;;4914570;29;20458;-70
2023/06/02 08:57:12;;;;;;;7.23;6.53;;;32.40;41.40;;;;;;4912137;29;20509;-72
2023/06/02 08:59:39;;;;;;;8.10;7.50;;;32.60;41.30;;;;;;4914833;29;20489;-70
2023/06/02 09:02:05;;;;;;;8.23;7.40;;;32.20;40.80;;;;;;4912897;29;20480;-67
2023/06/02 09:04:31;;;;;;;7.30;6.70;;;32.60;41.30;;;;;;4917322;29;20458;-68
2023/06/02 09:07:15;;;;;;;7.13;6.60;;;33.40;40.60;;;;;;4913139;29;20448;-64
2023/06/02 09:09:59;;;;;;;6.33;5.83;;;33.70;39.90;;;;;;4912873;29;20348;-65
2023/06/02 09:12:25;;;;;;;7.73;7.03;;;33.70;40.20;;;;;;4913477;29;20990;-66
2023/06/02 09:15:08;;;;;;;8.10;7.30;;;32.30;41.40;;;;;;4914133;29;20442;-64
2023/06/02 09:17:34;;;;;;;9.97;7.47;;;31.50;42.90;;;;;;4894491;29;20669;-68
2023/06/02 09:20:10;;;;;;;8.43;7.63;;;32.30;42.70;;;;;;4913598;29;20482;-67
2023/06/02 09:22:57;;;;;;;7.30;6.70;;;32.20;41.80;;;;;;4910652;29;20715;-68
2023/06/02 09:25:25;;;;;;;8.20;7.50;;;32.90;41.40;;;;;;4913347;29;20454;-68
2023/06/02 09:27:55;;;;;;;8.60;7.90;;;33.00;41.10;;;;;;4913691;29;20462;-68
2023/06/02 09:30:21;;;;;;;7.73;6.97;;;33.30;40.80;;;;;;4913042;29;20978;-68
2023/06/02 09:32:55;;;;;;;7.47;6.77;;;33.20;40.80;;;;;;4912414;29;20984;-68
2023/06/02 09:35:35;;;;;;;7.23;6.00;;;32.80;40.60;;;;;;4912160;29;20218;-68
2023/06/02 09:38:07;;;;;;;7.47;6.77;;;32.80;40.70;;;;;;4909041;29;20462;-68
2023/06/02 09:40:35;;;;;;;7.90;7.20;;;32.50;41.50;;;;;;4912834;29;21064;-66
2023/06/02 09:43:05;;;;;;;7.70;6.90;;;33.60;39.80;;;;;;4911585;29;20438;-67
2023/06/02 09:45:32;;;;;;;9.77;7.33;;;33.50;39.90;;;;;;4910569;29;20454;-66
2023/06/02 09:47:58;;;;;;;7.33;6.73;;;33.70;39.30;;;;;;4910082;29;20895;-67
2023/06/02 09:50:32;;;;;;;7.30;6.60;;;34.20;39.00;;;;;;4896043;29;20480;-67
2023/06/02 09:53:03;;;;;;;7.87;7.13;;;34.20;38.20;;;;;;4910897;29;20508;-68
2023/06/02 09:55:36;;;;;;;11.20;7.10;;;33.00;39.00;;;;;;4914449;29;20454;-68
2023/06/02 09:58:03;;;;;;;20.70;8.90;;;32.70;39.40;;;;;;4895863;29;20574;-68
2023/06/02 10:00:29;;;;;;;7.47;6.73;;;32.20;40.40;;;;;;4909869;29;21014;-68
2023/06/02 10:02:55;;;;;;;7.30;6.60;;;33.30;39.00;;;;;;4908990;29;21011;-67
2023/06/02 10:05:22;;;;;;;7.80;7.00;;;33.90;38.50;;;;;;4911956;29;20461;-67
2023/06/02 10:08:10;;;;;;;8.00;7.20;;;34.30;38.00;;;;;;4912425;29;20186;-66
2023/06/02 10:10:48;;;;;;;7.33;6.63;;;34.90;37.70;;;;;;4912382;29;20473;-67
2023/06/02 10:13:44;;;;;;;7.67;6.97;;;34.70;37.80;;;;;;4910083;29;20578;-68
2023/06/02 10:16:49;;;;;;;6.67;6.17;;;35.00;36.50;;;;;;4892446;29;20450;-67
2023/06/02 10:19:25;;;;;;;10.30;8.00;;;34.70;37.60;;;;;;4891093;29;20469;-68
2023/06/02 10:22:08;;;;;;;8.43;7.70;;;33.80;37.30;;;;;;4909389;29;21206;-68
2023/06/02 10:24:50;;;;;;;8.20;7.50;;;32.30;40.10;;;;;;4909248;29;20453;-67
2023/06/02 10:27:17;;;;;;;9.07;6.70;;;30.80;41.80;;;;;;4909396;29;20518;-68
2023/06/02 10:29:44;;;;;;;9.33;7.40;;;29.60;44.00;;;;;;4912932;29;21039;-68
2023/06/02 10:32:33;;;;;;;7.97;7.20;;;28.90;45.40;;;;;;4911776;29;20973;-67
2023/06/02 10:35:00;;;;;;;7.40;6.80;;;28.40;47.20;;;;;;4916635;29;20484;-66
2023/06/02 10:37:26;;;;;;;8.27;7.27;;;28.50;47.40;;;;;;4911127;29;20475;-67
2023/06/02 10:39:56;;;;;;;7.40;6.80;;;28.60;47.10;;;;;;4913151;29;21120;-66
2023/06/02 10:42:30;;;;;;;7.00;6.40;;;28.60;47.20;;;;;;4913078;29;20450;-67
2023/06/02 10:45:26;;;;;;;7.37;6.70;;;28.80;46.50;;;;;;4913064;29;20449;-66
2023/06/02 10:47:52;;;;;;;6.90;6.30;;;28.90;45.40;;;;;;4883839;29;20461;-66
2023/06/02 10:50:21;;;;;;;10.37;8.80;;;28.30;46.10;;;;;;4912251;29;20481;-66
2023/06/02 10:53:04;;;;;;;8.40;7.70;;;29.30;44.80;;;;;;4908036;29;20667;-66
2023/06/02 10:55:30;;;;;;;7.10;6.50;;;30.30;43.50;;;;;;4912209;29;20465;-66
2023/06/02 10:58:07;;;;;;;7.30;6.80;;;30.60;42.80;;;;;;4911682;29;20453;-66
2023/06/02 11:00:35;;;;;;;7.37;6.67;;;30.30;43.90;;;;;;4896505;29;20489;-68
2023/06/02 11:03:17;;;;;;;7.87;6.70;;;30.80;43.40;;;;;;4904148;29;20454;-69
2023/06/02 11:05:46;;;;;;;9.83;7.60;;;30.70;44.40;;;;;;4908488;29;20459;-72
2023/06/02 11:08:15;;;;;;;8.23;6.67;;;30.70;42.70;;;;;;4909257;29;20792;-68
2023/06/02 11:10:44;;;;;;;6.83;6.23;;;31.00;42.90;;;;;;4911599;29;20615;-67
2023/06/02 11:13:12;;;;;;;6.10;5.53;;;30.20;42.30;;;;;;4909815;29;20446;-68
2023/06/02 11:15:38;;;;;;;6.57;6.07;;;29.50;43.80;;;;;;4894670;29;20461;-70
2023/06/02 11:18:31;;;;;;;6.53;5.93;;;30.80;42.40;;;;;;4911783;29;20448;-73
2023/06/02 11:20:58;;;;;;;6.83;6.10;;;31.30;41.70;;;;;;4874246;29;20619;-71
2023/06/02 11:23:25;;;;;;;6.93;6.43;;;32.10;41.20;;;;;;4908007;29;20529;-73
2023/06/02 11:26:10;;;;;;;6.00;5.50;;;31.20;41.40;;;;;;4914945;29;20450;-72
2023/06/02 11:28:36;;;;;;;6.20;5.70;;;30.90;42.10;;;;;;4909434;29;20449;-69
2023/06/02 11:31:06;;;;;;;6.43;5.83;;;31.20;42.70;;;;;;4897283;29;20485;-67
2023/06/02 11:33:33;;;;;;;7.33;6.63;;;31.30;42.30;;;;;;4911386;29;20196;-68
2023/06/02 11:35:59;;;;;;;6.70;6.10;;;31.00;41.50;;;;;;4912214;29;21862;-68
2023/06/02 11:38:31;;;;;;;7.57;6.97;;;29.70;43.50;;;;;;4910937;29;20458;-68
2023/06/02 11:41:07;;;;;;;7.53;6.03;;;29.30;44.20;;;;;;4908757;29;20479;-66
2023/06/02 11:43:33;;;;;;;6.07;5.67;;;28.80;45.30;;;;;;4912470;29;20485;-67
2023/06/02 11:46:10;;;;;;;6.27;5.77;;;28.90;44.70;;;;;;4910348;29;20484;-69
2023/06/02 11:48:40;;;;;;;7.23;6.03;;;28.70;45.30;;;;;;4910464;29;20653;-68
2023/06/02 11:51:07;;;;;;;7.37;6.50;;;28.40;45.30;;;;;;4894942;29;20466;-69
2023/06/02 11:53:33;;;;;;;6.33;5.83;;;27.60;47.10;;;;;;4909434;29;20455;-66
2023/06/02 11:56:00;;;;;;;6.90;6.23;;;26.60;48.10;;;;;;4914944;29;20496;-66
2023/06/02 11:58:27;;;;;;;6.07;5.57;;;26.30;48.60;;;;;;4910318;29;20957;-64
2023/06/02 12:01:05;;;;;;;6.13;5.53;;;26.10;47.50;;;;;;4911554;29;20516;-67
2023/06/02 12:03:32;;;;;;;6.10;5.60;;;25.70;49.10;;;;;;4905513;29;20560;-67
2023/06/02 12:06:16;;;;;;;6.00;5.50;;;25.50;49.50;;;;;;4911859;29;20531;-68
2023/06/02 12:08:42;;;;;;;6.97;5.80;;;25.30;50.40;;;;;;4911179;29;20543;-70
2023/06/02 12:11:18;;;;;;;8.50;5.73;;;25.40;51.10;;;;;;4911021;29;21054;-70
2023/06/02 12:13:56;;;;;;;6.67;6.07;;;25.30;51.40;;;;;;4911493;29;20833;-70
2023/06/02 12:16:24;;;;;;;6.30;5.80;;;25.30;51.50;;;;;;4910173;29;20479;-69
2023/06/02 12:18:50;;;;;;;6.37;5.77;;;25.30;51.50;;;;;;4898482;29;20962;-70
2023/06/02 12:21:26;;;;;;;7.47;6.60;;;25.20;50.70;;;;;;4906388;29;20474;-69
2023/06/02 12:23:54;;;;;;;7.77;6.17;;;24.90;51.40;;;;;;4903382;29;20506;-70
2023/06/02 12:26:20;;;;;;;7.17;5.50;;;24.90;51.70;;;;;;4895887;29;20449;-70
2023/06/02 12:28:45;;;;;;;6.23;5.73;;;25.00;51.50;;;;;;4910916;29;20496;-71
2023/06/02 12:31:11;;;;;;;6.40;5.77;;;25.20;50.90;;;;;;4909019;29;20982;-67
2023/06/02 12:33:40;;;;;;;6.13;5.57;;;25.20;49.70;;;;;;4893577;29;20442;-69
2023/06/02 12:36:07;;;;;;;7.60;7.00;;;25.20;49.00;;;;;;4907561;29;20193;-69
2023/06/02 12:38:34;;;;;;;6.33;5.83;;;25.20;49.20;;;;;;4907693;29;21341;-68
2023/06/02 12:41:00;;;;;;;6.10;5.57;;;25.40;50.00;;;;;;4905087;29;20648;-69
2023/06/02 12:43:25;;;;;;;6.47;5.50;;;25.50;50.00;;;;;;4909686;29;21001;-68
2023/06/02 12:45:52;;;;;;;8.00;5.17;;;25.40;49.80;;;;;;4914428;29;20464;-68
2023/06/02 12:48:17;;;;;;;5.30;4.90;;;25.40;49.80;;;;;;4911096;29;20196;-68
2023/06/02 12:50:43;;;;;;;5.57;5.07;;;25.30;49.50;;;;;;4908818;29;20492;-68